Aviation Digital Data Service (ADDS)

Output produced by METARs form (1912 UTC 30 July 2014)
found at http://aviationweather.gov/adds/metars/
 
KCDW 301853Z 29006KT 10SM BKN065 25/09 A3001 RMK AO2 SLP166 T02500094
KMMU 301845Z 27011KT 20SM SCT060 26/10 A3001
KFWN 301853Z AUTO VRB03KT 10SM FEW060 24/12 A3001 RMK AO2 SLP160 T02440117
KTEB 301851Z 25006KT 10SM BKN070 28/09 A2999 RMK AO2 SLP154 T02780089
KTEB 301721Z 3018/3118 VRB05KT P6SM SKC 
     FM302200 23007KT P6SM SCT060 
     FM310100 VRB03KT P6SM SCT250 
     FM311400 22008KT P6SM BKN050
       
KEWR 301851Z 25011G14KT 10SM SCT065 27/09 A3000 RMK AO2 SLP158 T02720089
KEWR 301721Z 3018/3124 VRB05KT P6SM FEW050 
     FM302100 22007KT P6SM SCT060 
     FM310600 VRB04KT P6SM SCT250 
     FM311300 22008KT P6SM SCT250 
     FM311600 21011KT P6SM BKN050 
     FM312300 22009KT P6SM BKN250
       
KABE 301851Z 25008KT 10SM BKN055 25/12 A3003 RMK AO2 SLP166 T02500117
KABE 301738Z 3018/3118 22007KT P6SM SCT050 
     FM310000 21003KT P6SM FEW060 
     TEMPO 3106/3110 BKN060 
     FM311500 24007KT P6SM SCT050 
     TEMPO 3116/3118 BKN050
       
KAVP 301854Z 25007KT 10SM FEW050 OVC070 23/09 A3002 RMK AO2 SLP161 T02280094
KAVP 301733Z 3018/3118 24008KT P6SM SCT050 BKN070 
     FM302000 25008KT P6SM BKN080 
     FM310300 15003KT P6SM -SHRA OVC080 
     FM310900 12002KT 4SM BR BKN250 
     FM311300 23005KT P6SM SCT050 SCT250
       
KSWF 301845Z 26010KT 20SM SCT050 24/11 A3002
KSWF 301721Z 3018/3124 VRB04KT P6SM SCT040 
     TEMPO 3018/3022 BKN040 
     FM311400 25008KT P6SM BKN050 
     FM312200 VRB04KT P6SM BKN250 AMD NOT SKED
       
KMSV 301855Z AUTO 22005KT 10SM SCT048 SCT060 BKN065 21/11 A3004 RMK AO1
KPOU 301853Z 28005KT 10SM FEW080 25/11 A2999 RMK AO2 SLP151 T02500111
KPOU 301720Z 3018/3118 18005KT P6SM BKN050 
     FM310200 VRB03KT P6SM BKN250 
     FM310800 VRB03KT P6SM BKN060 
     FM311200 20005KT P6SM VCSH BKN040